Terminal Aerodrome Forecast
Issued by NWS

Home | Current Version | Previous Version | Text Only | Print | Product List | Glossary On
Versions: 1 2 3 4 5 6 7 8 9 10 11 12 13 14
000
FTUS45 KLKN 021120
TAFEKO
TAF
KEKO 021120Z 0212/0312 08003KT P6SM FEW150
     FM022000 19006KT P6SM FEW050 SCT070
     FM030400 11004KT P6SM SKC=

USA.gov is the U.S. government's official web portal to all federal, state and local government web resources and services.